sensor_id;sensor_type;location;lat;lon;timestamp;P1;durP1;ratioP1;P2;durP2;ratioP2
39020;SDS011;25188;51.958;5.842;2023-12-29T00:02:12;12.45;;;1.40;;
39020;SDS011;25188;51.958;5.842;2023-12-29T00:04:38;10.77;;;1.27;;
39020;SDS011;25188;51.958;5.842;2023-12-29T00:07:04;11.02;;;0.95;;
39020;SDS011;25188;51.958;5.842;2023-12-29T00:09:29;9.30;;;1.23;;
39020;SDS011;25188;51.958;5.842;2023-12-29T00:11:55;11.70;;;1.48;;
39020;SDS011;25188;51.958;5.842;2023-12-29T00:14:24;8.82;;;1.20;;
39020;SDS011;25188;51.958;5.842;2023-12-29T00:16:51;9.80;;;1.33;;
39020;SDS011;25188;51.958;5.842;2023-12-29T00:19:17;13.15;;;1.23;;
39020;SDS011;25188;51.958;5.842;2023-12-29T00:21:42;11.80;;;1.77;;
39020;SDS011;25188;51.958;5.842;2023-12-29T00:24:08;11.25;;;1.48;;
39020;SDS011;25188;51.958;5.842;2023-12-29T00:26:34;8.13;;;1.17;;
39020;SDS011;25188;51.958;5.842;2023-12-29T00:29:00;8.82;;;0.98;;
39020;SDS011;25188;51.958;5.842;2023-12-29T00:31:25;9.38;;;0.98;;
39020;SDS011;25188;51.958;5.842;2023-12-29T00:33:52;8.60;;;1.42;;
39020;SDS011;25188;51.958;5.842;2023-12-29T00:36:18;9.05;;;1.23;;
39020;SDS011;25188;51.958;5.842;2023-12-29T00:38:46;9.13;;;1.83;;
39020;SDS011;25188;51.958;5.842;2023-12-29T00:41:12;13.82;;;1.58;;
39020;SDS011;25188;51.958;5.842;2023-12-29T00:43:38;9.77;;;1.27;;
39020;SDS011;25188;51.958;5.842;2023-12-29T00:46:04;8.90;;;1.27;;
39020;SDS011;25188;51.958;5.842;2023-12-29T00:48:33;15.63;;;2.17;;
39020;SDS011;25188;51.958;5.842;2023-12-29T00:51:01;9.85;;;1.33;;
39020;SDS011;25188;51.958;5.842;2023-12-29T00:53:28;6.28;;;1.23;;
39020;SDS011;25188;51.958;5.842;2023-12-29T00:55:58;8.25;;;1.30;;
39020;SDS011;25188;51.958;5.842;2023-12-29T00:58:26;11.88;;;1.50;;
39020;SDS011;25188;51.958;5.842;2023-12-29T01:00:52;16.15;;;1.67;;
39020;SDS011;25188;51.958;5.842;2023-12-29T01:03:17;12.65;;;1.60;;
39020;SDS011;25188;51.958;5.842;2023-12-29T01:05:43;13.13;;;1.35;;
39020;SDS011;25188;51.958;5.842;2023-12-29T01:08:09;13.18;;;1.85;;
39020;SDS011;25188;51.958;5.842;2023-12-29T01:10:35;7.75;;;1.38;;
39020;SDS011;25188;51.958;5.842;2023-12-29T01:13:00;11.02;;;1.40;;
39020;SDS011;25188;51.958;5.842;2023-12-29T01:15:26;10.00;;;1.42;;
39020;SDS011;25188;51.958;5.842;2023-12-29T01:17:53;5.28;;;1.15;;
39020;SDS011;25188;51.958;5.842;2023-12-29T01:20:19;9.45;;;1.38;;
39020;SDS011;25188;51.958;5.842;2023-12-29T01:22:45;11.68;;;1.13;;
39020;SDS011;25188;51.958;5.842;2023-12-29T01:25:10;13.23;;;1.55;;
39020;SDS011;25188;51.958;5.842;2023-12-29T01:27:37;8.30;;;1.10;;
39020;SDS011;25188;51.958;5.842;2023-12-29T01:30:03;11.75;;;2.00;;
39020;SDS011;25188;51.958;5.842;2023-12-29T01:32:29;12.23;;;2.08;;
39020;SDS011;25188;51.958;5.842;2023-12-29T01:34:54;15.52;;;2.03;;
39020;SDS011;25188;51.958;5.842;2023-12-29T01:37:20;8.43;;;1.13;;
39020;SDS011;25188;51.958;5.842;2023-12-29T01:39:47;10.23;;;1.25;;
39020;SDS011;25188;51.958;5.842;2023-12-29T01:42:13;12.65;;;1.20;;
39020;SDS011;25188;51.958;5.842;2023-12-29T01:44:38;6.35;;;0.98;;
39020;SDS011;25188;51.958;5.842;2023-12-29T01:47:05;11.57;;;1.42;;
39020;SDS011;25188;51.958;5.842;2023-12-29T01:49:38;11.52;;;1.30;;
39020;SDS011;25188;51.958;5.842;2023-12-29T01:52:05;12.27;;;1.77;;
39020;SDS011;25188;51.958;5.842;2023-12-29T01:54:33;7.35;;;1.08;;
39020;SDS011;25188;51.958;5.842;2023-12-29T01:57:01;12.05;;;1.25;;
39020;SDS011;25188;51.958;5.842;2023-12-29T01:59:28;9.40;;;1.55;;
39020;SDS011;25188;51.958;5.842;2023-12-29T02:01:57;7.47;;;1.20;;
39020;SDS011;25188;51.958;5.842;2023-12-29T02:04:26;12.73;;;1.83;;
39020;SDS011;25188;51.958;5.842;2023-12-29T02:06:52;9.07;;;1.13;;
39020;SDS011;25188;51.958;5.842;2023-12-29T02:09:19;8.88;;;1.13;;
39020;SDS011;25188;51.958;5.842;2023-12-29T02:11:45;11.18;;;1.38;;
39020;SDS011;25188;51.958;5.842;2023-12-29T02:14:12;10.57;;;1.25;;
39020;SDS011;25188;51.958;5.842;2023-12-29T02:19:52;7.55;;;0.82;;
39020;SDS011;25188;51.958;5.842;2023-12-29T02:22:06;8.98;;;1.13;;
39020;SDS011;25188;51.958;5.842;2023-12-29T02:24:33;9.95;;;1.88;;
39020;SDS011;25188;51.958;5.842;2023-12-29T02:32:36;13.27;;;1.77;;
39020;SDS011;25188;51.958;5.842;2023-12-29T02:35:04;8.75;;;0.95;;
39020;SDS011;25188;51.958;5.842;2023-12-29T02:37:33;7.53;;;1.05;;
39020;SDS011;25188;51.958;5.842;2023-12-29T02:40:01;11.68;;;1.38;;
39020;SDS011;25188;51.958;5.842;2023-12-29T02:42:27;8.38;;;1.10;;
39020;SDS011;25188;51.958;5.842;2023-12-29T02:44:52;10.48;;;1.67;;
39020;SDS011;25188;51.958;5.842;2023-12-29T02:47:18;8.55;;;1.48;;
39020;SDS011;25188;51.958;5.842;2023-12-29T02:49:44;8.23;;;1.40;;
39020;SDS011;25188;51.958;5.842;2023-12-29T02:52:10;9.25;;;1.27;;
39020;SDS011;25188;51.958;5.842;2023-12-29T02:54:35;8.30;;;1.58;;
39020;SDS011;25188;51.958;5.842;2023-12-29T02:57:01;8.70;;;1.42;;
39020;SDS011;25188;51.958;5.842;2023-12-29T02:59:27;10.02;;;1.83;;
39020;SDS011;25188;51.958;5.842;2023-12-29T03:01:52;11.52;;;2.22;;
39020;SDS011;25188;51.958;5.842;2023-12-29T03:04:18;9.20;;;1.40;;
39020;SDS011;25188;51.958;5.842;2023-12-29T03:06:44;10.40;;;1.15;;
39020;SDS011;25188;51.958;5.842;2023-12-29T03:09:09;10.20;;;1.58;;
39020;SDS011;25188;51.958;5.842;2023-12-29T03:11:35;11.85;;;1.95;;
39020;SDS011;25188;51.958;5.842;2023-12-29T03:14:01;12.77;;;2.08;;
39020;SDS011;25188;51.958;5.842;2023-12-29T03:16:26;11.88;;;1.58;;
39020;SDS011;25188;51.958;5.842;2023-12-29T03:18:52;10.65;;;1.63;;
39020;SDS011;25188;51.958;5.842;2023-12-29T03:21:18;14.05;;;1.75;;
39020;SDS011;25188;51.958;5.842;2023-12-29T03:23:43;9.77;;;1.52;;
39020;SDS011;25188;51.958;5.842;2023-12-29T03:26:09;10.82;;;1.55;;
39020;SDS011;25188;51.958;5.842;2023-12-29T03:28:35;10.27;;;2.00;;
39020;SDS011;25188;51.958;5.842;2023-12-29T03:31:00;12.73;;;1.48;;
39020;SDS011;25188;51.958;5.842;2023-12-29T03:33:26;10.18;;;1.30;;
39020;SDS011;25188;51.958;5.842;2023-12-29T03:35:51;11.52;;;1.60;;
39020;SDS011;25188;51.958;5.842;2023-12-29T03:38:18;12.27;;;1.63;;
39020;SDS011;25188;51.958;5.842;2023-12-29T03:40:44;12.63;;;2.40;;
39020;SDS011;25188;51.958;5.842;2023-12-29T03:43:09;8.55;;;1.23;;
39020;SDS011;25188;51.958;5.842;2023-12-29T03:45:35;11.48;;;1.35;;
39020;SDS011;25188;51.958;5.842;2023-12-29T03:48:01;15.00;;;1.55;;
39020;SDS011;25188;51.958;5.842;2023-12-29T03:50:27;8.85;;;1.45;;
39020;SDS011;25188;51.958;5.842;2023-12-29T03:52:54;12.32;;;1.70;;
39020;SDS011;25188;51.958;5.842;2023-12-29T03:55:20;10.40;;;1.23;;
39020;SDS011;25188;51.958;5.842;2023-12-29T03:57:46;11.23;;;1.38;;
39020;SDS011;25188;51.958;5.842;2023-12-29T04:00:12;14.85;;;1.73;;
39020;SDS011;25188;51.958;5.842;2023-12-29T04:02:38;13.90;;;1.35;;
39020;SDS011;25188;51.958;5.842;2023-12-29T04:05:05;14.70;;;2.40;;
39020;SDS011;25188;51.958;5.842;2023-12-29T04:07:31;14.30;;;2.08;;
39020;SDS011;25188;51.958;5.842;2023-12-29T04:09:57;14.90;;;1.50;;
39020;SDS011;25188;51.958;5.842;2023-12-29T04:12:23;13.55;;;1.90;;
39020;SDS011;25188;51.958;5.842;2023-12-29T04:14:48;13.40;;;2.15;;
39020;SDS011;25188;51.958;5.842;2023-12-29T04:17:14;13.13;;;2.25;;
39020;SDS011;25188;51.958;5.842;2023-12-29T04:19:40;13.68;;;1.75;;
39020;SDS011;25188;51.958;5.842;2023-12-29T04:22:06;12.02;;;1.65;;
39020;SDS011;25188;51.958;5.842;2023-12-29T04:24:32;11.88;;;1.92;;
39020;SDS011;25188;51.958;5.842;2023-12-29T04:26:58;15.18;;;1.80;;
39020;SDS011;25188;51.958;5.842;2023-12-29T04:29:24;16.92;;;2.03;;
39020;SDS011;25188;51.958;5.842;2023-12-29T04:31:50;19.85;;;3.33;;
39020;SDS011;25188;51.958;5.842;2023-12-29T04:34:16;12.13;;;2.25;;
39020;SDS011;25188;51.958;5.842;2023-12-29T04:36:41;16.85;;;2.20;;
39020;SDS011;25188;51.958;5.842;2023-12-29T04:39:07;13.82;;;1.95;;
39020;SDS011;25188;51.958;5.842;2023-12-29T04:41:35;12.93;;;1.80;;
39020;SDS011;25188;51.958;5.842;2023-12-29T04:44:01;12.27;;;1.98;;
39020;SDS011;25188;51.958;5.842;2023-12-29T04:46:27;15.32;;;1.73;;
39020;SDS011;25188;51.958;5.842;2023-12-29T04:48:52;14.20;;;1.63;;
39020;SDS011;25188;51.958;5.842;2023-12-29T04:51:18;13.68;;;1.67;;
39020;SDS011;25188;51.958;5.842;2023-12-29T04:53:45;15.05;;;2.40;;
39020;SDS011;25188;51.958;5.842;2023-12-29T04:56:11;18.35;;;2.97;;
39020;SDS011;25188;51.958;5.842;2023-12-29T04:58:37;13.13;;;1.73;;
39020;SDS011;25188;51.958;5.842;2023-12-29T05:01:03;14.45;;;1.88;;
39020;SDS011;25188;51.958;5.842;2023-12-29T05:03:29;11.70;;;1.60;;
39020;SDS011;25188;51.958;5.842;2023-12-29T05:05:55;15.38;;;1.77;;
39020;SDS011;25188;51.958;5.842;2023-12-29T05:08:21;17.92;;;3.05;;
39020;SDS011;25188;51.958;5.842;2023-12-29T05:10:46;16.48;;;2.65;;
39020;SDS011;25188;51.958;5.842;2023-12-29T05:13:12;10.32;;;1.60;;
39020;SDS011;25188;51.958;5.842;2023-12-29T05:15:39;13.75;;;2.22;;
39020;SDS011;25188;51.958;5.842;2023-12-29T05:18:05;21.52;;;2.53;;
39020;SDS011;25188;51.958;5.842;2023-12-29T05:20:31;16.65;;;2.20;;
39020;SDS011;25188;51.958;5.842;2023-12-29T05:22:57;11.95;;;1.88;;
39020;SDS011;25188;51.958;5.842;2023-12-29T05:25:22;12.90;;;2.45;;
39020;SDS011;25188;51.958;5.842;2023-12-29T05:27:49;14.38;;;1.98;;
39020;SDS011;25188;51.958;5.842;2023-12-29T05:30:15;14.90;;;2.15;;
39020;SDS011;25188;51.958;5.842;2023-12-29T05:32:41;10.90;;;1.90;;
39020;SDS011;25188;51.958;5.842;2023-12-29T05:35:07;12.63;;;2.63;;
39020;SDS011;25188;51.958;5.842;2023-12-29T05:37:33;13.38;;;2.33;;
39020;SDS011;25188;51.958;5.842;2023-12-29T05:39:58;10.98;;;1.65;;
39020;SDS011;25188;51.958;5.842;2023-12-29T05:42:24;20.80;;;2.70;;
39020;SDS011;25188;51.958;5.842;2023-12-29T05:44:49;17.55;;;2.83;;
39020;SDS011;25188;51.958;5.842;2023-12-29T05:47:17;14.63;;;2.45;;
39020;SDS011;25188;51.958;5.842;2023-12-29T05:49:43;12.67;;;2.70;;
39020;SDS011;25188;51.958;5.842;2023-12-29T05:52:10;19.50;;;2.67;;
39020;SDS011;25188;51.958;5.842;2023-12-29T05:54:35;18.00;;;2.72;;
39020;SDS011;25188;51.958;5.842;2023-12-29T05:57:01;11.63;;;2.00;;
39020;SDS011;25188;51.958;5.842;2023-12-29T05:59:27;16.38;;;2.65;;
39020;SDS011;25188;51.958;5.842;2023-12-29T06:01:53;20.13;;;2.40;;
39020;SDS011;25188;51.958;5.842;2023-12-29T06:04:18;12.13;;;2.17;;
39020;SDS011;25188;51.958;5.842;2023-12-29T06:06:44;10.57;;;1.90;;
39020;SDS011;25188;51.958;5.842;2023-12-29T06:09:11;17.55;;;2.30;;
39020;SDS011;25188;51.958;5.842;2023-12-29T06:11:37;12.15;;;1.92;;
39020;SDS011;25188;51.958;5.842;2023-12-29T06:14:03;14.00;;;1.55;;
39020;SDS011;25188;51.958;5.842;2023-12-29T06:16:29;15.48;;;2.42;;
39020;SDS011;25188;51.958;5.842;2023-12-29T06:18:55;18.75;;;2.60;;
39020;SDS011;25188;51.958;5.842;2023-12-29T06:21:21;10.90;;;2.40;;
39020;SDS011;25188;51.958;5.842;2023-12-29T06:23:47;14.88;;;1.95;;
39020;SDS011;25188;51.958;5.842;2023-12-29T06:26:22;16.33;;;2.67;;
39020;SDS011;25188;51.958;5.842;2023-12-29T06:28:48;17.98;;;2.28;;
39020;SDS011;25188;51.958;5.842;2023-12-29T06:31:13;13.07;;;1.90;;
39020;SDS011;25188;51.958;5.842;2023-12-29T06:33:42;16.50;;;1.88;;
39020;SDS011;25188;51.958;5.842;2023-12-29T06:36:08;15.82;;;2.22;;
39020;SDS011;25188;51.958;5.842;2023-12-29T06:38:35;12.43;;;1.93;;
39020;SDS011;25188;51.958;5.842;2023-12-29T06:41:01;16.63;;;1.83;;
39020;SDS011;25188;51.958;5.842;2023-12-29T06:43:29;17.35;;;2.38;;
39020;SDS011;25188;51.958;5.842;2023-12-29T06:45:55;14.93;;;2.10;;
39020;SDS011;25188;51.958;5.842;2023-12-29T06:48:21;12.27;;;2.10;;
39020;SDS011;25188;51.958;5.842;2023-12-29T06:50:47;10.10;;;1.13;;
39020;SDS011;25188;51.958;5.842;2023-12-29T06:53:13;16.58;;;1.88;;
39020;SDS011;25188;51.958;5.842;2023-12-29T06:55:39;10.70;;;1.60;;
39020;SDS011;25188;51.958;5.842;2023-12-29T06:58:07;13.88;;;1.80;;
39020;SDS011;25188;51.958;5.842;2023-12-29T07:00:32;9.63;;;1.50;;
39020;SDS011;25188;51.958;5.842;2023-12-29T07:03:00;9.05;;;1.55;;
39020;SDS011;25188;51.958;5.842;2023-12-29T07:05:26;14.32;;;1.80;;
39020;SDS011;25188;51.958;5.842;2023-12-29T07:07:51;13.30;;;2.38;;
39020;SDS011;25188;51.958;5.842;2023-12-29T07:10:17;11.03;;;1.27;;
39020;SDS011;25188;51.958;5.842;2023-12-29T07:12:43;7.38;;;1.05;;
39020;SDS011;25188;51.958;5.842;2023-12-29T07:15:09;13.93;;;1.50;;
39020;SDS011;25188;51.958;5.842;2023-12-29T07:17:35;7.38;;;1.17;;
39020;SDS011;25188;51.958;5.842;2023-12-29T07:20:01;9.82;;;1.27;;
39020;SDS011;25188;51.958;5.842;2023-12-29T07:22:26;11.53;;;1.83;;
39020;SDS011;25188;51.958;5.842;2023-12-29T07:24:53;11.25;;;1.20;;
39020;SDS011;25188;51.958;5.842;2023-12-29T07:27:18;14.03;;;1.20;;
39020;SDS011;25188;51.958;5.842;2023-12-29T07:29:44;10.83;;;2.23;;
39020;SDS011;25188;51.958;5.842;2023-12-29T07:32:10;7.15;;;1.40;;
39020;SDS011;25188;51.958;5.842;2023-12-29T07:34:35;10.87;;;1.27;;
39020;SDS011;25188;51.958;5.842;2023-12-29T07:37:01;6.13;;;1.60;;
39020;SDS011;25188;51.958;5.842;2023-12-29T07:39:27;9.23;;;1.30;;
39020;SDS011;25188;51.958;5.842;2023-12-29T07:41:53;11.33;;;1.47;;
39020;SDS011;25188;51.958;5.842;2023-12-29T07:44:19;10.77;;;2.07;;
39020;SDS011;25188;51.958;5.842;2023-12-29T07:46:45;14.90;;;2.03;;
39020;SDS011;25188;51.958;5.842;2023-12-29T07:49:10;11.77;;;1.67;;
39020;SDS011;25188;51.958;5.842;2023-12-29T07:51:40;11.53;;;1.57;;
39020;SDS011;25188;51.958;5.842;2023-12-29T07:54:06;11.80;;;1.93;;
39020;SDS011;25188;51.958;5.842;2023-12-29T07:56:33;13.03;;;2.17;;
39020;SDS011;25188;51.958;5.842;2023-12-29T07:59:00;17.40;;;2.07;;
39020;SDS011;25188;51.958;5.842;2023-12-29T08:01:26;7.73;;;1.57;;
39020;SDS011;25188;51.958;5.842;2023-12-29T08:03:52;6.57;;;1.30;;
39020;SDS011;25188;51.958;5.842;2023-12-29T08:06:18;15.13;;;1.77;;
39020;SDS011;25188;51.958;5.842;2023-12-29T08:08:43;6.00;;;1.60;;
39020;SDS011;25188;51.958;5.842;2023-12-29T08:11:12;8.53;;;1.50;;
39020;SDS011;25188;51.958;5.842;2023-12-29T08:13:40;7.68;;;1.40;;
39020;SDS011;25188;51.958;5.842;2023-12-29T08:16:05;9.90;;;1.40;;
39020;SDS011;25188;51.958;5.842;2023-12-29T08:18:33;6.03;;;1.60;;
39020;SDS011;25188;51.958;5.842;2023-12-29T08:20:58;10.40;;;1.93;;
39020;SDS011;25188;51.958;5.842;2023-12-29T08:23:25;8.17;;;1.37;;
39020;SDS011;25188;51.958;5.842;2023-12-29T08:25:53;11.70;;;2.10;;
39020;SDS011;25188;51.958;5.842;2023-12-29T08:28:22;10.43;;;1.47;;
39020;SDS011;25188;51.958;5.842;2023-12-29T08:30:48;10.50;;;1.87;;
39020;SDS011;25188;51.958;5.842;2023-12-29T08:33:13;12.90;;;2.07;;
39020;SDS011;25188;51.958;5.842;2023-12-29T08:35:40;8.17;;;1.20;;
39020;SDS011;25188;51.958;5.842;2023-12-29T08:38:06;6.47;;;1.97;;
39020;SDS011;25188;51.958;5.842;2023-12-29T08:40:31;8.17;;;1.30;;
39020;SDS011;25188;51.958;5.842;2023-12-29T08:42:57;9.60;;;1.40;;
39020;SDS011;25188;51.958;5.842;2023-12-29T08:45:23;11.50;;;1.50;;
39020;SDS011;25188;51.958;5.842;2023-12-29T08:47:49;6.77;;;1.20;;
39020;SDS011;25188;51.958;5.842;2023-12-29T08:50:14;9.90;;;1.53;;
39020;SDS011;25188;51.958;5.842;2023-12-29T08:52:41;7.22;;;1.27;;
39020;SDS011;25188;51.958;5.842;2023-12-29T08:55:06;5.78;;;1.98;;
39020;SDS011;25188;51.958;5.842;2023-12-29T08:57:33;8.55;;;1.50;;
39020;SDS011;25188;51.958;5.842;2023-12-29T08:59:59;7.80;;;1.10;;
39020;SDS011;25188;51.958;5.842;2023-12-29T09:02:25;7.07;;;1.00;;
39020;SDS011;25188;51.958;5.842;2023-12-29T09:04:51;8.57;;;1.50;;
39020;SDS011;25188;51.958;5.842;2023-12-29T09:07:17;7.40;;;1.33;;
39020;SDS011;25188;51.958;5.842;2023-12-29T09:09:43;7.22;;;0.90;;
39020;SDS011;25188;51.958;5.842;2023-12-29T09:12:08;7.47;;;1.08;;
39020;SDS011;25188;51.958;5.842;2023-12-29T09:14:34;6.65;;;1.00;;
39020;SDS011;25188;51.958;5.842;2023-12-29T09:17:00;8.13;;;1.33;;
39020;SDS011;25188;51.958;5.842;2023-12-29T09:19:26;6.35;;;1.13;;
39020;SDS011;25188;51.958;5.842;2023-12-29T09:21:52;5.97;;;1.13;;
39020;SDS011;25188;51.958;5.842;2023-12-29T09:24:17;6.40;;;1.08;;
39020;SDS011;25188;51.958;5.842;2023-12-29T09:26:43;6.88;;;1.30;;
39020;SDS011;25188;51.958;5.842;2023-12-29T09:29:09;6.15;;;1.35;;
39020;SDS011;25188;51.958;5.842;2023-12-29T09:31:35;7.35;;;1.00;;
39020;SDS011;25188;51.958;5.842;2023-12-29T09:34:01;8.60;;;1.08;;
39020;SDS011;25188;51.958;5.842;2023-12-29T09:36:27;5.90;;;0.90;;
39020;SDS011;25188;51.958;5.842;2023-12-29T09:38:53;4.07;;;1.05;;
39020;SDS011;25188;51.958;5.842;2023-12-29T09:41:20;5.97;;;1.40;;
39020;SDS011;25188;51.958;5.842;2023-12-29T09:43:48;6.13;;;1.00;;
39020;SDS011;25188;51.958;5.842;2023-12-29T09:46:18;9.23;;;1.55;;
39020;SDS011;25188;51.958;5.842;2023-12-29T09:48:46;5.25;;;1.25;;
39020;SDS011;25188;51.958;5.842;2023-12-29T09:51:13;6.60;;;0.90;;
39020;SDS011;25188;51.958;5.842;2023-12-29T09:53:41;6.60;;;0.60;;
39020;SDS011;25188;51.958;5.842;2023-12-29T09:56:07;5.80;;;1.00;;
39020;SDS011;25188;51.958;5.842;2023-12-29T09:58:36;6.03;;;1.38;;
39020;SDS011;25188;51.958;5.842;2023-12-29T10:01:06;4.25;;;0.65;;
39020;SDS011;25188;51.958;5.842;2023-12-29T10:03:32;5.93;;;0.80;;
39020;SDS011;25188;51.958;5.842;2023-12-29T10:06:00;5.10;;;0.90;;
39020;SDS011;25188;51.958;5.842;2023-12-29T10:08:32;5.00;;;0.70;;
39020;SDS011;25188;51.958;5.842;2023-12-29T10:11:00;4.97;;;0.57;;
39020;SDS011;25188;51.958;5.842;2023-12-29T10:13:27;4.90;;;0.80;;
39020;SDS011;25188;51.958;5.842;2023-12-29T10:16:08;6.63;;;1.30;;
39020;SDS011;25188;51.958;5.842;2023-12-29T10:21:27;2.47;;;0.50;;
39020;SDS011;25188;51.958;5.842;2023-12-29T10:26:20;4.03;;;0.85;;
39020;SDS011;25188;51.958;5.842;2023-12-29T10:28:47;3.85;;;0.63;;
39020;SDS011;25188;51.958;5.842;2023-12-29T10:31:14;4.38;;;0.60;;
39020;SDS011;25188;51.958;5.842;2023-12-29T10:33:43;5.07;;;0.80;;
39020;SDS011;25188;51.958;5.842;2023-12-29T10:36:15;3.47;;;0.55;;
39020;SDS011;25188;51.958;5.842;2023-12-29T10:38:41;2.83;;;0.70;;
39020;SDS011;25188;51.958;5.842;2023-12-29T10:41:16;2.45;;;0.60;;
39020;SDS011;25188;51.958;5.842;2023-12-29T10:43:46;2.05;;;0.40;;
39020;SDS011;25188;51.958;5.842;2023-12-29T10:46:17;2.00;;;0.57;;
39020;SDS011;25188;51.958;5.842;2023-12-29T10:48:43;2.08;;;0.50;;
39020;SDS011;25188;51.958;5.842;2023-12-29T10:51:08;2.92;;;0.60;;
39020;SDS011;25188;51.958;5.842;2023-12-29T10:53:35;4.90;;;0.57;;
39020;SDS011;25188;51.958;5.842;2023-12-29T10:56:02;5.10;;;0.50;;
39020;SDS011;25188;51.958;5.842;2023-12-29T10:58:28;1.83;;;0.60;;
39020;SDS011;25188;51.958;5.842;2023-12-29T11:00:58;2.35;;;0.50;;
39020;SDS011;25188;51.958;5.842;2023-12-29T11:03:26;2.03;;;0.50;;
39020;SDS011;25188;51.958;5.842;2023-12-29T11:05:59;3.35;;;0.60;;
39020;SDS011;25188;51.958;5.842;2023-12-29T11:08:28;3.47;;;0.50;;
39020;SDS011;25188;51.958;5.842;2023-12-29T11:10:54;4.68;;;0.70;;
39020;SDS011;25188;51.958;5.842;2023-12-29T11:13:21;3.08;;;0.50;;
39020;SDS011;25188;51.958;5.842;2023-12-29T11:15:47;5.03;;;0.75;;
39020;SDS011;25188;51.958;5.842;2023-12-29T11:18:14;3.13;;;1.05;;
39020;SDS011;25188;51.958;5.842;2023-12-29T11:20:41;6.43;;;0.85;;
39020;SDS011;25188;51.958;5.842;2023-12-29T11:23:08;4.03;;;0.75;;
39020;SDS011;25188;51.958;5.842;2023-12-29T11:25:35;5.25;;;0.88;;
39020;SDS011;25188;51.958;5.842;2023-12-29T11:28:01;5.93;;;1.55;;
39020;SDS011;25188;51.958;5.842;2023-12-29T11:30:27;4.60;;;0.65;;
39020;SDS011;25188;51.958;5.842;2023-12-29T11:32:55;5.00;;;0.80;;
39020;SDS011;25188;51.958;5.842;2023-12-29T11:36:08;4.45;;;0.75;;
39020;SDS011;25188;51.958;5.842;2023-12-29T11:38:45;3.95;;;0.90;;
39020;SDS011;25188;51.958;5.842;2023-12-29T11:41:56;5.35;;;0.73;;
39020;SDS011;25188;51.958;5.842;2023-12-29T11:44:39;5.70;;;1.17;;
39020;SDS011;25188;51.958;5.842;2023-12-29T11:47:04;3.28;;;0.60;;
39020;SDS011;25188;51.958;5.842;2023-12-29T11:49:59;5.38;;;0.80;;
39020;SDS011;25188;51.958;5.842;2023-12-29T11:52:33;6.20;;;0.80;;
39020;SDS011;25188;51.958;5.842;2023-12-29T11:55:07;2.97;;;0.50;;
39020;SDS011;25188;51.958;5.842;2023-12-29T11:57:39;2.15;;;0.60;;
39020;SDS011;25188;51.958;5.842;2023-12-29T12:00:06;6.63;;;1.00;;
39020;SDS011;25188;51.958;5.842;2023-12-29T12:02:33;6.93;;;0.63;;
39020;SDS011;25188;51.958;5.842;2023-12-29T12:05:00;9.05;;;1.02;;
39020;SDS011;25188;51.958;5.842;2023-12-29T12:12:44;7.82;;;1.00;;
39020;SDS011;25188;51.958;5.842;2023-12-29T12:17:58;6.50;;;0.70;;
39020;SDS011;25188;51.958;5.842;2023-12-29T12:20:24;9.48;;;1.05;;
39020;SDS011;25188;51.958;5.842;2023-12-29T12:23:17;10.05;;;1.35;;
39020;SDS011;25188;51.958;5.842;2023-12-29T12:25:43;8.68;;;1.30;;
39020;SDS011;25188;51.958;5.842;2023-12-29T12:28:10;4.68;;;0.90;;
39020;SDS011;25188;51.958;5.842;2023-12-29T12:30:39;7.10;;;0.80;;
39020;SDS011;25188;51.958;5.842;2023-12-29T12:33:05;7.32;;;0.82;;
39020;SDS011;25188;51.958;5.842;2023-12-29T12:35:31;7.82;;;1.13;;
39020;SDS011;25188;51.958;5.842;2023-12-29T12:38:06;9.90;;;1.02;;
39020;SDS011;25188;51.958;5.842;2023-12-29T12:40:33;10.93;;;1.20;;
39020;SDS011;25188;51.958;5.842;2023-12-29T12:42:59;6.55;;;0.85;;
39020;SDS011;25188;51.958;5.842;2023-12-29T12:45:25;5.80;;;0.98;;
39020;SDS011;25188;51.958;5.842;2023-12-29T12:47:55;8.65;;;0.80;;
39020;SDS011;25188;51.958;5.842;2023-12-29T12:50:34;12.50;;;1.90;;
39020;SDS011;25188;51.958;5.842;2023-12-29T12:53:00;14.82;;;0.88;;
39020;SDS011;25188;51.958;5.842;2023-12-29T12:55:34;10.85;;;0.80;;
39020;SDS011;25188;51.958;5.842;2023-12-29T12:58:01;8.88;;;1.13;;
39020;SDS011;25188;51.958;5.842;2023-12-29T13:00:27;11.45;;;1.33;;
39020;SDS011;25188;51.958;5.842;2023-12-29T13:02:53;9.27;;;1.10;;
39020;SDS011;25188;51.958;5.842;2023-12-29T13:05:19;12.13;;;1.35;;
39020;SDS011;25188;51.958;5.842;2023-12-29T13:07:46;8.75;;;0.90;;
39020;SDS011;25188;51.958;5.842;2023-12-29T13:10:11;13.10;;;2.25;;
39020;SDS011;25188;51.958;5.842;2023-12-29T13:12:37;15.70;;;1.77;;
39020;SDS011;25188;51.958;5.842;2023-12-29T13:15:07;9.38;;;1.00;;
39020;SDS011;25188;51.958;5.842;2023-12-29T13:17:36;11.68;;;1.92;;
39020;SDS011;25188;51.958;5.842;2023-12-29T13:20:01;6.22;;;0.80;;
39020;SDS011;25188;51.958;5.842;2023-12-29T13:22:29;8.68;;;1.05;;
39020;SDS011;25188;51.958;5.842;2023-12-29T13:24:55;9.80;;;1.02;;
39020;SDS011;25188;51.958;5.842;2023-12-29T13:27:21;10.23;;;1.05;;
39020;SDS011;25188;51.958;5.842;2023-12-29T13:29:47;11.82;;;1.90;;
39020;SDS011;25188;51.958;5.842;2023-12-29T13:32:22;13.68;;;1.40;;
39020;SDS011;25188;51.958;5.842;2023-12-29T13:37:37;12.48;;;1.30;;
39020;SDS011;25188;51.958;5.842;2023-12-29T13:42:45;10.57;;;1.35;;
39020;SDS011;25188;51.958;5.842;2023-12-29T13:45:12;4.18;;;1.02;;
39020;SDS011;25188;51.958;5.842;2023-12-29T13:47:40;10.98;;;1.40;;
39020;SDS011;25188;51.958;5.842;2023-12-29T13:50:08;8.80;;;1.83;;
39020;SDS011;25188;51.958;5.842;2023-12-29T13:52:35;8.02;;;1.30;;
39020;SDS011;25188;51.958;5.842;2023-12-29T13:55:03;8.95;;;1.10;;
39020;SDS011;25188;51.958;5.842;2023-12-29T13:57:34;14.90;;;1.27;;
39020;SDS011;25188;51.958;5.842;2023-12-29T14:00:17;11.95;;;1.70;;
39020;SDS011;25188;51.958;5.842;2023-12-29T14:05:20;8.85;;;1.38;;
39020;SDS011;25188;51.958;5.842;2023-12-29T14:10:32;11.15;;;1.73;;
39020;SDS011;25188;51.958;5.842;2023-12-29T14:13:03;10.40;;;1.10;;
39020;SDS011;25188;51.958;5.842;2023-12-29T14:15:33;16.00;;;1.73;;
39020;SDS011;25188;51.958;5.842;2023-12-29T14:18:46;7.47;;;1.10;;
39020;SDS011;25188;51.958;5.842;2023-12-29T14:21:26;8.25;;;0.90;;
39020;SDS011;25188;51.958;5.842;2023-12-29T14:24:12;11.02;;;1.30;;
39020;SDS011;25188;51.958;5.842;2023-12-29T14:26:40;14.07;;;3.97;;
39020;SDS011;25188;51.958;5.842;2023-12-29T14:29:19;9.05;;;1.58;;
39020;SDS011;25188;51.958;5.842;2023-12-29T14:31:45;10.07;;;1.65;;
39020;SDS011;25188;51.958;5.842;2023-12-29T14:34:12;12.73;;;2.05;;
39020;SDS011;25188;51.958;5.842;2023-12-29T14:36:39;8.38;;;1.83;;
39020;SDS011;25188;51.958;5.842;2023-12-29T14:39:06;10.48;;;2.28;;
39020;SDS011;25188;51.958;5.842;2023-12-29T14:41:36;10.52;;;2.08;;
39020;SDS011;25188;51.958;5.842;2023-12-29T14:44:01;7.45;;;1.77;;
39020;SDS011;25188;51.958;5.842;2023-12-29T14:46:27;8.85;;;1.42;;
39020;SDS011;25188;51.958;5.842;2023-12-29T14:48:53;6.93;;;1.52;;
39020;SDS011;25188;51.958;5.842;2023-12-29T14:51:21;8.23;;;1.52;;
39020;SDS011;25188;51.958;5.842;2023-12-29T14:53:47;10.85;;;2.13;;
39020;SDS011;25188;51.958;5.842;2023-12-29T14:56:14;10.32;;;2.50;;
39020;SDS011;25188;51.958;5.842;2023-12-29T14:58:40;12.20;;;1.85;;
39020;SDS011;25188;51.958;5.842;2023-12-29T15:01:06;9.13;;;1.80;;
39020;SDS011;25188;51.958;5.842;2023-12-29T15:03:34;5.93;;;1.83;;
39020;SDS011;25188;51.958;5.842;2023-12-29T15:05:59;12.33;;;2.10;;
39020;SDS011;25188;51.958;5.842;2023-12-29T15:08:25;6.43;;;1.50;;
39020;SDS011;25188;51.958;5.842;2023-12-29T15:10:53;5.77;;;1.33;;
39020;SDS011;25188;51.958;5.842;2023-12-29T15:13:20;8.33;;;1.30;;
39020;SDS011;25188;51.958;5.842;2023-12-29T15:15:45;8.63;;;1.70;;